createdAt,value
2018-07-21T00:00:10.278Z,20.90
2018-07-21T00:02:39.149Z,20.90
2018-07-21T00:05:08.882Z,20.90
2018-07-21T00:07:38.993Z,20.90
2018-07-21T00:10:08.185Z,20.80
2018-07-21T00:12:37.133Z,20.80
2018-07-21T00:15:05.930Z,20.80
2018-07-21T00:17:35.614Z,20.80
2018-07-21T00:20:04.828Z,20.80
2018-07-21T00:22:34.032Z,20.70
2018-07-21T00:25:02.819Z,20.70
2018-07-21T00:27:32.563Z,20.60
2018-07-21T00:30:02.752Z,20.60
2018-07-21T00:32:31.573Z,20.60
2018-07-21T00:35:00.417Z,20.50
2018-07-21T00:37:29.219Z,20.50
2018-07-21T00:39:58.953Z,20.50
2018-07-21T00:42:28.128Z,20.50
2018-07-21T00:44:57.742Z,20.40
2018-07-21T00:47:26.621Z,20.40
2018-07-21T00:49:55.433Z,20.40
2018-07-21T00:52:24.223Z,20.40
2018-07-21T00:54:53.162Z,20.40
2018-07-21T00:57:23.437Z,20.30
2018-07-21T00:59:52.227Z,20.30
2018-07-21T01:02:21.306Z,20.30
2018-07-21T01:04:50.240Z,20.20
2018-07-21T01:07:19.054Z,20.20
2018-07-21T01:09:48.139Z,20.20
2018-07-21T01:12:17.168Z,20.20
2018-07-21T01:14:46.929Z,20.20
2018-07-21T01:17:15.901Z,20.20
2018-07-21T01:19:45.358Z,20.20
2018-07-21T01:22:14.201Z,20.20
2018-07-21T01:24:43.323Z,20.20
2018-07-21T01:27:12.235Z,20.10
2018-07-21T01:29:41.617Z,20.00
2018-07-21T01:32:10.493Z,20.20
2018-07-21T01:34:39.937Z,20.20
2018-07-21T01:37:08.922Z,20.20
2018-07-21T01:39:37.751Z,20.20
2018-07-21T01:42:06.562Z,20.20
2018-07-21T01:44:35.361Z,20.20
2018-07-21T01:47:04.256Z,20.20
2018-07-21T01:49:33.036Z,20.20
2018-07-21T01:52:02.080Z,20.20
2018-07-21T01:54:31.049Z,20.20
2018-07-21T01:57:00.547Z,20.20
2018-07-21T01:59:29.326Z,20.20
2018-07-21T02:01:58.151Z,20.10
2018-07-21T02:04:26.918Z,20.10
2018-07-21T02:06:55.739Z,20.20
2018-07-21T02:09:24.725Z,20.10
2018-07-21T02:11:53.550Z,20.20
2018-07-21T02:14:22.516Z,20.10
2018-07-21T02:16:51.327Z,20.10
2018-07-21T02:19:21.441Z,20.10
2018-07-21T02:21:50.958Z,20.10
2018-07-21T02:24:19.762Z,20.00
2018-07-21T02:26:48.535Z,20.00
2018-07-21T02:29:17.332Z,20.00
2018-07-21T02:31:46.127Z,20.10
2018-07-21T02:34:15.238Z,20.00
2018-07-21T02:36:44.045Z,20.00
2018-07-21T02:39:13.310Z,20.00
2018-07-21T02:41:42.220Z,19.90
2018-07-21T02:44:11.039Z,19.90
2018-07-21T02:46:39.816Z,19.90
2018-07-21T02:49:08.627Z,19.90
2018-07-21T02:51:37.410Z,19.80
2018-07-21T02:54:06.269Z,19.90
2018-07-21T02:56:35.090Z,19.80
2018-07-21T02:59:04.603Z,19.90
2018-07-21T03:01:33.431Z,19.80
2018-07-21T03:04:02.267Z,19.80
2018-07-21T03:06:31.129Z,19.80
2018-07-21T03:09:00.267Z,19.70
2018-07-21T03:11:29.086Z,19.70
2018-07-21T03:13:57.873Z,19.70
2018-07-21T03:16:27.554Z,19.60
2018-07-21T03:18:56.542Z,19.60
2018-07-21T03:21:25.340Z,19.50
2018-07-21T03:23:54.174Z,19.50
2018-07-21T03:26:23.132Z,19.40
